Moscow, MI (49257)

3:33 PM EDT on August 20, 2014 (GMT -0400)
Jerome Weather | Change Station
CLOSE
Current Station
Personal Weather Station
Location: Jerome, MI
Elevation: 1128 ft
Nearby Weather Stations

Elev 1128 ft 42.02 °N, 84.46 °W | Updated 2 seconds ago

Scattered Clouds
Scattered Clouds
78.8 °F
Feels Like 81 °F
N
3.0
Wind Variable Wind from West
Gusts 13.0 mph

Today
High -- | Low -- °F
--% Chance of Precip.
Yesterday
High -- | Low -- °F
Precip. -- in
6:51 AM 8:30 PM
Waning Crescent, 19% visible
Pressure 29.93 in
Visibility 10.0 miles
Clouds Scattered Clouds 9000 ft
Heat Index 81 °F
Dew Point 68 °F
Humidity 70%
Rainfall 0.02 in
Snow Depth Not available.
UV 7 out of 12
Pollen 9.40 out of 12
Ozone Good
PM2.5 Moderate
Flu Activity Not available.
METAR KJYM 201915Z AUTO 26007KT 230V290 10SM SCT090 28/19 A2993 RMK AO2 T02760186

More Conditions Fewer Conditions

Pressure 29.93 in
Visibility 10.0 miles
Clouds Scattered Clouds 9000 ft
Heat Index 81 °F
Dew Point 68 °F
Humidity 70%
Rainfall 0.02 in
Snow Depth Not available.
UV 7 out of 12
Pollen 9.40 out of 12
Ozone Good
PM2.5 Moderate
Flu Activity Not available.
METAR KJYM 201915Z AUTO 26007KT 230V290 10SM SCT090 28/19 A2993 RMK AO2 T02760186

More Conditions Fewer Conditions

10-Day Weather Forecast

Almanac

Astronomy

Aug. 20, 2014 Rise Set
Actual Time 6:51 AM EDT 8:30 PM EDT
Civil Twilight 6:21 AM EDT 9:00 PM EDT
Nautical Twilight 5:45 AM EDT 9:36 PM EDT
Astronomical Twilight 5:06 AM EDT 10:14 PM EDT
Moon 2:28 AM EDT 5:17 PM EDT
Length of Visible Light 14h 39m
Length of Day
13h 39m
Tomorrow will be 2m 35s shorter.
Waning Crescent, 19% of the Moon is Illuminated
Today
Waning Crescent
Aug 25
New
Sep 2
First Quarter
Sep 8
Full
Sep 15
Last Quarter

Today's Extremes

State Highs State Lows

Community

WunderPhotos

Upload Photos

1,745,727 photos uploaded!

WunderBlogs® & News

By Dr. Jeff Masters
Director of Meteorology, Weather Underground
By Kari Strenfel
Meteorologist, Weather Underground
By Christopher C. Burt
Weather Historian, Weather Underground
August 20, 2014
August 20, 2014
August 20, 2014

Nearby

Air Quality

  Air Quality AQ Index Pollutant
Yesterday Moderate
PM2.5
Yesterday Good
OZONE
Current Moderate
PM2.5
Current Good
OZONE
Wednesday Moderate
PM2.5
Wednesday Good
OZONE
Thursday Moderate
PM2.5
Thursday Good
OZONE

Snow Depth

Station Depth Elevation
No new snow has been reported.

Earthquake Activity

City Distance Mag. Time & Date
No recent earthquake activity has been reported nearby.
Minimum magnitude displayed is 2.5.

Coastal Water Temperatures

Place Temperature
No Stations Reporting

Nearby Weather Stations